Time;durP1;ratioP1;P1;durP2;ratioP2;P2;SDS_P1;SDS_P2;PMS_P1;PMS_P2;Temp;Humidity;BMP_temperature;BMP_pressure;BME280_temperature;BME280_humidity;BME280_pressure;Samples;Min_cycle;Max_cycle;Signal;HPM_P1;HPM_P2
2022/06/18 00:01:35;;;;;;;3.20;1.98;;;;;;;19.21;69.18;101231.59;5008004;28;20028;-67
2022/06/18 00:04:02;;;;;;;2.00;1.90;;;;;;;19.21;69.39;101234.28;4990726;28;20460;-72
2022/06/18 00:06:28;;;;;;;6.75;1.80;;;;;;;19.17;69.10;101230.28;4972963;28;20117;-70
2022/06/18 00:08:53;;;;;;;2.22;2.13;;;;;;;19.25;68.26;101225.88;4978184;28;20017;-70
2022/06/18 00:14:03;;;;;;;;;;;;;;;19.23;68.69;101223.38;5013113;28;20028;-71
2022/06/18 00:16:31;;;;;;;2.53;2.10;;;;;;;19.19;68.79;101222.91;4977231;28;20088;-69
2022/06/18 00:18:57;;;;;;;2.15;1.90;;;;;;;19.26;68.33;101220.31;4989139;27;20001;-70
2022/06/18 00:21:23;;;;;;;3.45;2.10;;;;;;;19.27;68.36;101219.31;5002820;27;20085;-70
2022/06/18 00:23:48;;;;;;;2.10;2.00;;;;;;;19.25;68.12;101221.34;4999426;27;20029;-69
2022/06/18 00:26:14;;;;;;;2.72;1.85;;;;;;;19.22;67.99;101219.88;4988855;28;20016;-69
2022/06/18 00:28:40;;;;;;;2.00;1.80;;;;;;;19.32;67.58;101216.91;5028581;27;20466;-70
2022/06/18 00:31:05;;;;;;;1.77;1.67;;;;;;;19.17;68.03;101213.38;4993602;27;20485;-70
2022/06/18 00:33:31;;;;;;;3.80;2.00;;;;;;;19.25;67.71;101216.00;4997243;27;20036;-70
2022/06/18 00:35:59;;;;;;;4.13;2.10;;;;;;;19.19;68.36;101212.19;4991706;28;20182;-70
2022/06/18 00:38:27;;;;;;;2.00;1.90;;;;;;;19.24;68.19;101213.50;4962853;28;20025;-71
2022/06/18 00:40:53;;;;;;;2.38;2.00;;;;;;;19.13;68.61;101212.91;4980508;28;20013;-69
2022/06/18 00:43:21;;;;;;;2.92;2.00;;;;;;;19.18;68.22;101209.69;4980565;28;20867;-71
2022/06/18 00:45:47;;;;;;;5.07;2.00;;;;;;;19.26;67.93;101211.44;4979474;28;20815;-70
2022/06/18 00:48:23;;;;;;;2.65;1.90;;;;;;;19.18;67.89;101210.50;4993063;28;20022;-69
2022/06/18 00:51:02;;;;;;;2.90;2.25;;;;;;;19.24;67.60;101205.44;4999214;28;20105;-70
2022/06/18 00:53:42;;;;;;;2.92;1.92;;;;;;;19.17;67.95;101214.19;4996699;28;20393;-69
2022/06/18 00:56:15;;;;;;;3.35;1.70;;;;;;;19.10;67.92;101210.59;4991530;27;20895;-72
2022/06/18 00:58:53;;;;;;;2.88;1.98;;;;;;;19.05;68.51;101204.94;5014747;27;20540;-70
2022/06/18 01:01:22;;;;;;;1.95;1.77;;;;;;;19.13;68.30;101207.53;5001049;27;20081;-70
2022/06/18 01:03:49;;;;;;;2.22;2.03;;;;;;;19.15;68.00;101208.19;5021164;27;20018;-71
2022/06/18 01:06:19;;;;;;;2.97;1.98;;;;;;;19.05;68.15;101204.94;5014434;27;20015;-70
2022/06/18 01:08:45;;;;;;;2.00;1.90;;;;;;;19.02;68.53;101194.56;5017044;28;20018;-70
2022/06/18 01:11:19;;;;;;;3.33;1.90;;;;;;;18.94;68.39;101203.53;5021946;27;20016;-70
2022/06/18 01:13:44;;;;;;;2.28;2.13;;;;;;;18.95;69.02;101207.03;5005200;27;20116;-69
2022/06/18 01:16:10;;;;;;;4.25;1.75;;;;;;;18.91;69.41;101192.31;5022727;27;20509;-69
2022/06/18 01:18:35;;;;;;;2.10;1.90;;;;;;;18.90;69.16;101201.38;5024236;27;20902;-70
2022/06/18 01:21:22;;;;;;;1.73;1.60;;;;;;;18.89;69.10;101200.53;5033546;27;20278;-71
2022/06/18 01:24:14;;;;;;;2.13;1.92;;;;;;;18.80;69.48;101199.75;5046623;27;20016;-70
2022/06/18 01:26:40;;;;;;;2.00;1.90;;;;;;;18.77;69.26;101192.06;5025424;27;19997;-70
2022/06/18 01:29:06;;;;;;;2.00;1.90;;;;;;;18.79;69.57;101200.75;5022500;27;20021;-68
2022/06/18 01:31:31;;;;;;;3.95;1.85;;;;;;;18.80;69.32;101191.69;4999698;28;20855;-69
2022/06/18 01:33:57;;;;;;;4.45;1.90;;;;;;;18.72;69.54;101194.44;5008480;28;20272;-69
2022/06/18 01:36:23;;;;;;;2.05;1.95;;;;;;;18.60;69.77;101191.38;4987781;28;20369;-70
2022/06/18 01:38:48;;;;;;;2.03;1.83;;;;;;;18.69;69.27;101186.75;4990304;28;20002;-70
2022/06/18 01:43:58;;;;;;;;;;;;;;;18.71;69.29;101180.22;5045487;27;20149;-70
2022/06/18 01:46:25;;;;;;;2.40;1.67;;;;;;;18.71;69.39;101179.38;5028921;27;19940;-70
2022/06/18 01:48:51;;;;;;;2.00;1.80;;;;;;;18.56;70.33;101173.97;5036410;27;20037;-71
2022/06/18 01:51:24;;;;;;;5.93;1.70;;;;;;;18.57;69.91;101166.75;5051290;27;20013;-71
2022/06/18 01:53:55;;;;;;;1.88;1.77;;;;;;;18.44;70.24;101162.81;4999562;27;20029;-68
2022/06/18 01:56:31;;;;;;;2.00;1.90;;;;;;;18.47;70.02;101159.81;5012439;27;20064;-70
2022/06/18 01:58:59;;;;;;;3.05;1.75;;;;;;;18.51;68.20;101161.13;5006716;28;20929;-70
2022/06/18 02:01:29;;;;;;;2.97;1.90;;;;;;;18.56;68.88;101157.88;4988151;27;20380;-69
2022/06/18 02:03:57;;;;;;;1.77;1.67;;;;;;;18.54;69.33;101160.75;4995215;27;20016;-69
2022/06/18 02:06:24;;;;;;;1.90;1.80;;;;;;;18.57;69.49;101156.03;4976608;28;20040;-70
2022/06/18 02:08:49;;;;;;;1.90;1.80;;;;;;;18.57;69.41;101166.75;4994896;28;20017;-70
2022/06/18 02:11:15;;;;;;;1.98;1.88;;;;;;;18.63;69.12;101158.84;4980857;28;20166;-69
2022/06/18 02:13:43;;;;;;;1.80;1.70;;;;;;;18.51;69.02;101161.13;4958869;28;20022;-69
2022/06/18 02:16:12;;;;;;;2.90;2.00;;;;;;;18.45;69.94;101159.13;4976218;28;20033;-69
2022/06/18 02:18:38;;;;;;;3.17;1.70;;;;;;;18.48;69.79;101155.25;4979282;28;20021;-70
2022/06/18 02:21:06;;;;;;;3.03;1.75;;;;;;;18.41;70.17;101149.78;4960296;28;20010;-70
2022/06/18 02:23:31;;;;;;;1.80;1.70;;;;;;;18.33;70.53;101152.50;4992732;28;20887;-70
2022/06/18 02:25:56;;;;;;;1.80;1.70;;;;;;;18.31;71.02;101150.00;4995653;28;20025;-70
2022/06/18 02:28:28;;;;;;;1.90;1.80;;;;;;;18.29;70.84;101146.69;5007438;28;20134;-70
2022/06/18 02:30:58;;;;;;;1.75;1.65;;;;;;;18.30;69.76;101148.38;4985607;28;20018;-70
2022/06/18 02:33:28;;;;;;;7.05;1.90;;;;;;;18.31;70.10;101152.69;4993800;28;20281;-69
2022/06/18 02:35:54;;;;;;;2.45;1.92;;;;;;;18.32;70.17;101146.31;5010941;28;20364;-69
2022/06/18 02:38:21;;;;;;;1.60;1.50;;;;;;;18.16;70.73;101149.97;4999226;27;20864;-70
2022/06/18 02:40:47;;;;;;;1.80;1.70;;;;;;;18.11;71.00;101154.19;5005152;28;20025;-70
2022/06/18 02:43:12;;;;;;;1.90;1.80;;;;;;;18.11;70.80;101146.97;5010762;28;20770;-69
2022/06/18 02:45:38;;;;;;;3.38;1.88;;;;;;;18.16;70.90;101147.28;4997705;27;21004;-70
2022/06/18 02:48:04;;;;;;;2.15;1.65;;;;;;;18.08;70.90;101138.44;5010027;27;20021;-70
2022/06/18 02:50:31;;;;;;;2.15;1.77;;;;;;;18.14;70.55;101143.94;4976540;28;20748;-69
2022/06/18 02:53:00;;;;;;;2.45;1.95;;;;;;;18.04;70.80;101137.16;5010964;28;20020;-70
2022/06/18 02:55:36;;;;;;;2.55;1.70;;;;;;;18.21;70.51;101140.56;5008324;27;20029;-70
2022/06/18 02:58:12;;;;;;;3.45;1.83;;;;;;;18.15;70.41;101145.59;4994863;28;20024;-70
2022/06/18 03:00:38;;;;;;;1.80;1.70;;;;;;;18.14;70.18;101146.59;4991627;28;20490;-70
2022/06/18 03:03:08;;;;;;;1.70;1.60;;;;;;;18.13;70.17;101144.09;4992442;28;20013;-70
2022/06/18 03:05:34;;;;;;;2.65;1.85;;;;;;;18.13;70.50;101146.78;4991885;28;20251;-71
2022/06/18 03:07:59;;;;;;;1.92;1.80;;;;;;;18.09;70.56;101148.16;4974829;28;20009;-70
2022/06/18 03:13:09;;;;;;;2.20;1.98;;;;;;;18.03;70.63;101152.38;5028650;28;20016;-70
2022/06/18 03:15:34;;;;;;;5.05;2.00;;;;;;;17.96;70.98;101146.03;5026988;27;20029;-70
2022/06/18 03:18:00;;;;;;;1.83;1.73;;;;;;;18.10;70.67;101161.34;4994929;27;20259;-69
2022/06/18 03:20:30;;;;;;;2.78;1.80;;;;;;;18.05;70.70;101155.72;4991736;27;20021;-69
2022/06/18 03:22:56;;;;;;;3.20;1.80;;;;;;;18.05;70.77;101155.72;5013182;27;20128;-69
2022/06/18 03:25:22;;;;;;;2.28;1.70;;;;;;;17.93;70.91;101162.47;4995705;27;20248;-70
2022/06/18 03:27:47;;;;;;;2.30;1.80;;;;;;;18.00;71.19;101153.53;5011496;27;20959;-70
2022/06/18 03:30:13;;;;;;;2.10;1.98;;;;;;;17.92;71.66;101155.44;5010096;27;20071;-70
2022/06/18 03:32:38;;;;;;;2.83;1.80;;;;;;;18.09;70.76;101162.38;4992330;28;20028;-69
2022/06/18 03:35:04;;;;;;;1.98;1.85;;;;;;;17.94;71.08;101150.75;5011762;28;21001;-71
2022/06/18 03:37:29;;;;;;;4.63;1.70;;;;;;;18.00;70.66;101152.72;4982164;28;20089;-70
2022/06/18 03:39:55;;;;;;;2.55;2.10;;;;;;;17.99;70.95;101154.56;4975453;28;20066;-70
2022/06/18 03:42:21;;;;;;;3.63;1.67;;;;;;;18.02;71.00;101156.03;4994031;27;20078;-70
2022/06/18 03:44:47;;;;;;;3.20;1.75;;;;;;;18.06;70.93;101156.53;5015879;27;20837;-69
2022/06/18 03:47:12;;;;;;;3.88;1.88;;;;;;;18.02;71.24;101162.25;5000190;28;21005;-70
2022/06/18 03:49:37;;;;;;;5.38;1.92;;;;;;;18.03;71.33;101160.41;4975799;28;20218;-71
2022/06/18 03:52:04;;;;;;;2.38;1.80;;;;;;;17.97;71.67;101161.13;4989925;28;20029;-70
2022/06/18 03:54:29;;;;;;;3.30;1.90;;;;;;;17.93;72.00;101160.63;5012352;28;20038;-69
2022/06/18 03:56:55;;;;;;;3.55;1.70;;;;;;;18.06;71.67;101167.25;5014004;28;20503;-69
2022/06/18 03:59:21;;;;;;;2.35;1.85;;;;;;;18.09;71.22;101162.38;4986884;27;20017;-70
2022/06/18 04:01:46;;;;;;;2.70;1.98;;;;;;;18.16;71.01;101163.34;4975892;27;20036;-70
2022/06/18 04:04:12;;;;;;;3.70;1.90;;;;;;;18.12;70.63;101166.53;4991006;27;20026;-70
2022/06/18 04:06:40;;;;;;;2.00;1.90;;;;;;;18.19;70.82;101167.53;4997554;28;20062;-69
2022/06/18 04:09:06;;;;;;;6.15;2.45;;;;;;;18.24;70.78;101159.78;4993862;27;20783;-71
2022/06/18 04:11:31;;;;;;;1.80;1.70;;;;;;;18.22;71.36;101167.16;5039025;27;20016;-70
2022/06/18 04:13:57;;;;;;;1.75;1.65;;;;;;;18.33;70.48;101160.53;5002017;27;20081;-70
2022/06/18 04:16:23;;;;;;;4.63;1.90;;;;;;;18.30;70.65;101168.94;5002913;27;20020;-69
2022/06/18 04:18:48;;;;;;;2.28;2.00;;;;;;;18.33;70.87;101158.72;4998725;28;20017;-71
2022/06/18 04:21:15;;;;;;;2.58;1.77;;;;;;;18.41;70.64;101157.81;4997390;27;20085;-69
2022/06/18 04:23:41;;;;;;;1.70;1.60;;;;;;;18.43;70.58;101163.00;5003466;28;20145;-71
2022/06/18 04:26:06;;;;;;;2.00;1.90;;;;;;;18.45;70.88;101152.94;4986706;28;20224;-69
2022/06/18 04:28:31;;;;;;;3.25;1.90;;;;;;;18.52;70.92;101160.06;5001865;28;20968;-70
2022/06/18 04:30:57;;;;;;;7.22;2.10;;;;;;;18.45;71.81;101159.13;5013732;27;20009;-71
2022/06/18 04:33:22;;;;;;;1.70;1.60;;;;;;;18.49;70.64;101163.13;5007926;27;20234;-70
2022/06/18 04:35:52;;;;;;;2.88;1.60;;;;;;;18.62;71.02;101161.69;4991435;27;20036;-70
2022/06/18 04:38:18;;;;;;;1.95;1.77;;;;;;;18.68;71.15;101151.09;5009835;27;20013;-70
2022/06/18 04:40:44;;;;;;;2.10;1.90;;;;;;;18.80;70.06;101153.34;5009146;27;20013;-70
2022/06/18 04:43:09;;;;;;;1.95;1.80;;;;;;;18.80;69.60;101156.84;5011217;27;20025;-68
2022/06/18 04:45:35;;;;;;;4.63;1.75;;;;;;;18.85;69.13;101149.09;5027590;27;20763;-70
2022/06/18 04:48:00;;;;;;;2.45;1.75;;;;;;;18.94;69.06;101149.88;5023317;27;20412;-70
2022/06/18 04:50:32;;;;;;;1.90;1.52;;;;;;;18.99;69.48;101146.66;5006250;27;20933;-70
2022/06/18 04:52:58;;;;;;;2.17;1.75;;;;;;;19.07;68.88;101145.75;4989410;28;20013;-72
2022/06/18 04:55:23;;;;;;;4.35;1.73;;;;;;;19.12;69.34;101141.50;4988385;28;20029;-70
2022/06/18 04:57:49;;;;;;;4.00;1.70;;;;;;;19.15;69.38;101141.13;5006751;28;20010;-68
2022/06/18 05:00:14;;;;;;;2.78;1.70;;;;;;;19.21;68.97;101145.75;5027029;27;20024;-69
2022/06/18 05:02:40;;;;;;;1.70;1.50;;;;;;;19.36;68.06;101144.91;5022649;27;20452;-71
2022/06/18 05:05:08;;;;;;;1.70;1.60;;;;;;;19.48;67.45;101143.44;4998978;27;20818;-71
2022/06/18 05:07:33;;;;;;;2.05;1.60;;;;;;;19.58;67.56;101140.47;5015994;27;20075;-70
2022/06/18 05:09:59;;;;;;;1.88;1.77;;;;;;;19.65;67.63;101140.56;5014758;27;21205;-70
2022/06/18 05:12:24;;;;;;;3.13;1.80;;;;;;;19.72;68.08;101141.47;4993329;27;20001;-70
2022/06/18 05:14:50;;;;;;;2.47;1.70;;;;;;;19.79;66.91;101138.88;5009324;27;20032;-70
2022/06/18 05:17:21;;;;;;;1.98;1.70;;;;;;;19.88;66.00;101132.41;5004313;28;20025;-70
2022/06/18 05:19:47;;;;;;;4.13;1.92;;;;;;;19.96;66.51;101137.66;4999726;27;20047;-70
2022/06/18 05:22:12;;;;;;;1.52;1.40;;;;;;;20.03;66.06;101138.56;5009016;27;20902;-69
2022/06/18 05:24:38;;;;;;;2.25;1.70;;;;;;;20.17;64.77;101134.16;5010442;28;20174;-71
2022/06/18 05:27:04;;;;;;;1.90;1.80;;;;;;;20.25;64.95;101139.44;4989529;28;20289;-72
2022/06/18 05:29:29;;;;;;;3.63;1.60;;;;;;;20.35;64.19;101140.97;4985079;27;20070;-70
2022/06/18 05:31:55;;;;;;;1.77;1.65;;;;;;;20.43;63.04;101143.50;4985851;28;20040;-69
2022/06/18 05:34:20;;;;;;;1.60;1.50;;;;;;;20.55;63.40;101133.09;4957579;28;20024;-69
2022/06/18 05:36:45;;;;;;;1.60;1.50;;;;;;;20.61;62.95;101131.47;4990719;28;20067;-71
2022/06/18 05:39:18;;;;;;;2.88;1.70;;;;;;;20.72;62.83;101128.28;4971808;28;20005;-70
2022/06/18 05:41:43;;;;;;;3.28;1.45;;;;;;;20.86;62.26;101131.94;4972560;28;20041;-71
2022/06/18 05:44:09;;;;;;;2.85;1.70;;;;;;;20.90;61.66;101133.19;4974401;28;20032;-70
2022/06/18 05:46:34;;;;;;;2.30;1.45;;;;;;;21.03;62.89;101132.47;4978579;27;20018;-69
2022/06/18 05:49:00;;;;;;;1.70;1.60;;;;;;;21.09;62.23;101134.34;5008530;27;20505;-70
2022/06/18 05:51:25;;;;;;;3.10;1.80;;;;;;;21.21;61.80;101118.50;4981866;27;20115;-70
2022/06/18 05:53:51;;;;;;;1.70;1.60;;;;;;;21.28;61.73;101117.50;5001346;28;20049;-70
2022/06/18 05:56:16;;;;;;;1.67;1.58;;;;;;;21.39;60.49;101120.66;4973956;28;20013;-71
2022/06/18 05:58:41;;;;;;;1.77;1.50;;;;;;;21.44;60.40;101118.19;5008034;28;20010;-69
2022/06/18 06:01:07;;;;;;;3.55;1.73;;;;;;;21.54;60.22;101124.06;4969258;28;20488;-70
2022/06/18 06:03:33;;;;;;;2.60;2.40;;;;;;;21.60;60.96;101123.28;4955169;28;20931;-71
2022/06/18 06:05:59;;;;;;;2.17;2.05;;;;;;;21.69;59.99;101123.94;4956434;28;20695;-70
2022/06/18 06:08:24;;;;;;;1.90;1.80;;;;;;;21.81;60.30;101112.56;4989560;28;20091;-71
2022/06/18 06:13:34;;;;;;;2.70;2.50;;;;;;;21.99;60.79;101122.78;4993218;28;20016;-71
2022/06/18 06:15:59;;;;;;;3.72;2.78;;;;;;;22.07;59.69;101119.91;4994519;28;20045;-70
2022/06/18 06:18:25;;;;;;;2.20;1.92;;;;;;;22.17;60.15;101123.03;4972660;28;21021;-71
2022/06/18 06:20:52;;;;;;;5.07;2.58;;;;;;;22.26;59.74;101127.19;4966440;28;20130;-71
2022/06/18 06:23:18;;;;;;;2.53;2.05;;;;;;;22.37;58.50;101122.28;4967544;28;20421;-70
2022/06/18 06:25:44;;;;;;;4.43;2.60;;;;;;;22.46;57.92;101127.25;4970249;28;20016;-72
2022/06/18 06:28:15;;;;;;;4.47;3.45;;;;;;;22.57;58.58;101128.50;4951710;28;20272;-72
2022/06/18 06:30:40;;;;;;;2.65;2.17;;;;;;;22.68;57.54;101128.94;4950314;28;20014;-71
2022/06/18 06:33:06;;;;;;;2.60;2.38;;;;;;;22.75;57.49;101129.75;5006413;28;20118;-71
2022/06/18 06:35:31;;;;;;;2.05;1.80;;;;;;;22.87;56.87;101122.69;4971211;28;20021;-70
2022/06/18 06:37:57;;;;;;;2.28;2.08;;;;;;;22.96;55.61;101121.41;4988809;28;20040;-71
2022/06/18 06:40:24;;;;;;;2.20;2.00;;;;;;;23.01;55.27;101128.06;4955829;28;20045;-72
2022/06/18 06:42:52;;;;;;;3.20;1.70;;;;;;;23.11;55.02;101117.66;4970579;28;20516;-71
2022/06/18 06:45:20;;;;;;;4.20;2.53;;;;;;;23.17;55.21;101121.41;4999045;27;20014;-70
2022/06/18 18:59:24;;;;;;;11.63;4.68;;;;;;;28.77;56.84;100381.34;5092186;27;20397;-74
2022/06/18 19:01:49;;;;;;;12.35;4.28;;;;;;;28.64;57.04;100386.47;5017947;27;20547;-75
2022/06/18 19:04:16;;;;;;;9.10;4.50;;;;;;;28.50;57.66;100375.22;4991701;27;20013;-75
2022/06/18 19:06:42;;;;;;;7.90;4.25;;;;;;;28.40;57.99;100374.09;4995084;28;20046;-71
2022/06/18 19:09:08;;;;;;;8.35;4.15;;;;;;;28.31;58.64;100367.50;4991666;28;20025;-72
2022/06/18 19:11:34;;;;;;;10.05;4.50;;;;;;;28.17;59.39;100366.34;4952204;28;20053;-73
2022/06/18 19:13:59;;;;;;;7.82;4.05;;;;;;;28.09;59.54;100360.34;4976407;28;20014;-73
2022/06/18 19:16:25;;;;;;;7.38;4.10;;;;;;;27.99;59.51;100368.44;4996941;28;20287;-73
2022/06/18 19:18:50;;;;;;;6.93;4.10;;;;;;;27.86;60.44;100352.53;4971026;28;20053;-71
2022/06/18 19:21:23;;;;;;;7.53;4.20;;;;;;;27.76;61.26;100358.72;4968887;28;20029;-73
2022/06/18 19:23:48;;;;;;;9.30;4.77;;;;;;;27.68;61.58;100354.59;4986678;28;20136;-74
2022/06/18 19:26:15;;;;;;;10.40;4.10;;;;;;;27.63;61.47;100353.75;4991589;28;20294;-73
2022/06/18 19:28:49;;;;;;;8.18;4.13;;;;;;;27.55;62.05;100350.44;4979756;28;20013;-71
2022/06/18 19:31:15;;;;;;;9.68;4.32;;;;;;;27.48;62.20;100344.38;4944932;28;20195;-72
2022/06/18 19:33:40;;;;;;;9.88;4.43;;;;;;;27.37;61.20;100337.22;4954569;28;20026;-73
2022/06/18 19:36:06;;;;;;;11.75;4.35;;;;;;;27.24;60.56;100343.88;4976410;28;20014;-72
2022/06/18 19:38:32;;;;;;;16.15;5.20;;;;;;;27.05;62.44;100340.72;4995124;28;20026;-74
2022/06/18 19:40:57;;;;;;;8.38;4.50;;;;;;;26.98;62.97;100338.22;4974887;28;20185;-75
2022/06/18 19:43:24;;;;;;;9.05;4.90;;;;;;;26.92;62.29;100339.25;4981536;28;20071;-74
2022/06/18 19:45:50;;;;;;;9.35;4.57;;;;;;;26.84;61.87;100339.69;4981039;28;20022;-74
2022/06/18 19:48:15;;;;;;;11.15;4.88;;;;;;;26.76;62.41;100337.44;4967347;28;20014;-72
2022/06/18 19:50:42;;;;;;;7.75;4.60;;;;;;;26.61;62.79;100335.31;4991622;28;20010;-74
2022/06/18 19:53:07;;;;;;;8.65;4.60;;;;;;;26.54;62.71;100341.78;4987263;28;20015;-72
2022/06/18 19:55:33;;;;;;;13.70;4.97;;;;;;;26.52;62.95;100326.81;4995465;28;20013;-72
2022/06/18 19:57:58;;;;;;;9.60;6.00;;;;;;;26.40;63.06;100335.91;4995733;28;20835;-73
2022/06/18 20:00:24;;;;;;;12.50;6.05;;;;;;;26.40;62.49;100329.66;4989059;28;20025;-74
2022/06/18 20:02:51;;;;;;;11.25;4.90;;;;;;;26.36;62.43;100328.53;4972510;28;20010;-74
2022/06/18 20:05:16;;;;;;;12.82;5.10;;;;;;;26.23;62.88;100325.13;4976285;28;20821;-70
2022/06/18 20:07:42;;;;;;;10.73;4.80;;;;;;;26.13;63.62;100324.16;4982536;28;20251;-73
2022/06/18 20:10:08;;;;;;;10.80;4.57;;;;;;;26.01;64.45;100310.72;4982147;28;20091;-73
2022/06/18 20:12:35;;;;;;;11.63;4.68;;;;;;;25.90;64.95;100312.41;4975094;28;20030;-74
2022/06/18 20:15:01;;;;;;;11.00;4.70;;;;;;;25.88;65.01;100295.59;4968511;28;20443;-73
2022/06/18 20:17:27;;;;;;;9.80;4.80;;;;;;;25.91;64.95;100310.56;4971452;28;20924;-74
2022/06/18 20:19:52;;;;;;;9.98;5.15;;;;;;;25.76;65.07;100308.44;4941595;28;20017;-72
2022/06/18 20:22:18;;;;;;;9.23;4.60;;;;;;;25.80;65.04;100304.16;4955481;28;20030;-73
2022/06/18 20:24:44;;;;;;;8.88;4.90;;;;;;;25.74;65.14;100297.84;4977402;28;20018;-71
2022/06/18 20:27:10;;;;;;;9.13;4.70;;;;;;;25.75;65.34;100293.22;4966582;28;20579;-72
2022/06/18 20:29:35;;;;;;;11.00;4.97;;;;;;;25.71;65.13;100291.03;4959210;28;20053;-72
2022/06/18 20:32:01;;;;;;;10.68;4.43;;;;;;;25.67;65.15;100291.78;4953214;28;20054;-72
2022/06/18 20:34:28;;;;;;;14.82;4.57;;;;;;;25.58;65.40;100282.41;4971218;28;20048;-69
2022/06/18 20:36:54;;;;;;;13.52;4.80;;;;;;;25.58;65.79;100283.25;4938951;28;20057;-73
2022/06/18 20:39:19;;;;;;;8.75;4.60;;;;;;;25.54;66.05;100276.69;4954425;28;20034;-73
2022/06/18 20:41:44;;;;;;;12.07;5.05;;;;;;;25.51;65.42;100271.78;4975913;28;20076;-73
2022/06/18 20:44:12;;;;;;;7.60;4.32;;;;;;;25.47;65.79;100265.19;4973194;28;20901;-70
2022/06/18 20:46:38;;;;;;;6.07;4.50;;;;;;;25.43;65.76;100259.44;4959658;28;20143;-71
2022/06/18 20:49:04;;;;;;;7.63;4.53;;;;;;;25.32;66.05;100260.34;4969082;28;20026;-71
2022/06/18 20:51:32;;;;;;;9.02;4.90;;;;;;;25.19;66.92;100256.88;4956371;28;20025;-69
2022/06/18 20:59:25;;;;;;;6.50;4.68;;;;;;;24.81;67.46;100263.00;4972925;28;20386;-70
2022/06/18 21:01:51;;;;;;;9.23;4.80;;;;;;;24.74;67.67;100256.91;4938767;28;20594;-71
2022/06/18 21:04:18;;;;;;;12.32;5.25;;;;;;;24.65;68.51;100251.91;4959747;28;20499;-71
2022/06/18 21:06:44;;;;;;;10.27;5.45;;;;;;;24.58;68.41;100234.97;4972406;28;20129;-69
2022/06/18 21:09:10;;;;;;;7.68;4.95;;;;;;;24.55;68.00;100242.72;4955404;28;20561;-72
2022/06/18 21:11:35;;;;;;;13.02;5.13;;;;;;;24.49;67.71;100241.81;4969935;28;20959;-71
2022/06/18 21:14:01;;;;;;;11.43;4.82;;;;;;;24.35;67.92;100238.56;4953937;28;20061;-71
2022/06/18 21:16:26;;;;;;;9.90;5.20;;;;;;;24.25;67.73;100236.50;4987551;28;20013;-70
2022/06/18 21:18:52;;;;;;;10.13;4.90;;;;;;;24.29;67.67;100226.84;4971196;28;20122;-69
2022/06/18 21:21:18;;;;;;;8.80;4.50;;;;;;;24.17;67.24;100224.19;4987843;28;20489;-72
2022/06/18 21:23:43;;;;;;;8.05;4.80;;;;;;;24.12;67.95;100215.16;4947888;28;20006;-70
2022/06/18 21:26:09;;;;;;;8.95;4.53;;;;;;;24.08;67.96;100230.19;4941940;28;20037;-71
2022/06/18 21:28:35;;;;;;;11.15;5.38;;;;;;;24.08;67.71;100219.38;4988489;28;20088;-70
2022/06/18 21:31:01;;;;;;;10.35;5.05;;;;;;;24.09;68.32;100215.63;4956433;28;20014;-72
2022/06/18 21:38:55;;;;;;;11.13;5.10;;;;;;;23.90;68.42;100202.28;4980235;28;20106;-72
2022/06/18 21:41:22;;;;;;;8.73;5.60;;;;;;;23.84;68.79;100205.91;4993798;28;20318;-71
2022/06/18 21:43:48;;;;;;;10.55;5.28;;;;;;;23.84;68.71;100195.09;4956719;28;20060;-68
2022/06/18 21:46:14;;;;;;;11.32;5.90;;;;;;;23.76;68.94;100203.56;4960790;28;20970;-71
2022/06/18 21:48:40;;;;;;;12.15;5.57;;;;;;;23.71;69.07;100209.69;4953798;28;20021;-73
2022/06/18 21:51:05;;;;;;;9.48;5.15;;;;;;;23.67;69.13;100206.63;4958679;28;20857;-71
2022/06/18 21:53:31;;;;;;;7.68;4.78;;;;;;;23.55;69.43;100197.72;4952915;28;20024;-69
2022/06/18 21:56:02;;;;;;;9.38;4.75;;;;;;;23.49;69.49;100191.41;4974059;28;20013;-69
2022/06/18 21:58:27;;;;;;;7.53;4.95;;;;;;;23.47;69.14;100184.59;4987022;28;20211;-69
2022/06/18 22:00:52;;;;;;;7.05;4.70;;;;;;;23.43;69.70;100196.91;4983474;28;20029;-71
2022/06/18 22:03:18;;;;;;;10.73;4.70;;;;;;;23.40;69.56;100192.81;4968481;28;20960;-73
2022/06/18 22:05:43;;;;;;;9.45;4.50;;;;;;;23.25;69.80;100185.19;4956577;28;20361;-72
2022/06/18 22:08:10;;;;;;;8.85;4.45;;;;;;;23.29;69.86;100189.03;4989797;28;20064;-72
2022/06/18 22:10:35;;;;;;;5.78;4.55;;;;;;;23.30;69.73;100185.28;5004664;28;20022;-68
2022/06/18 22:18:30;;;;;;;8.27;4.30;;;;;;;23.23;71.29;100176.50;4971595;28;20072;-69
2022/06/18 22:20:56;;;;;;;9.15;4.20;;;;;;;23.17;71.56;100166.63;4968000;28;20531;-72
2022/06/18 22:23:21;;;;;;;10.48;4.60;;;;;;;23.11;71.41;100167.53;4968802;28;20010;-71
2022/06/18 22:25:47;;;;;;;8.13;4.63;;;;;;;22.98;72.22;100168.56;4984145;28;20051;-70
2022/06/18 22:28:12;;;;;;;9.32;4.32;;;;;;;22.97;72.64;100161.53;4985774;28;20026;-69
2022/06/18 22:30:38;;;;;;;15.02;4.90;;;;;;;22.92;72.68;100154.16;4971938;28;20684;-72
2022/06/18 22:33:03;;;;;;;17.63;5.47;;;;;;;22.88;72.66;100147.56;4980935;28;20936;-72
2022/06/18 22:35:29;;;;;;;10.70;4.75;;;;;;;22.86;72.95;100152.38;4949515;28;20025;-70
2022/06/18 22:37:54;;;;;;;14.35;5.25;;;;;;;22.93;72.09;100145.00;4979643;28;20033;-72
2022/06/18 22:40:20;;;;;;;11.38;5.53;;;;;;;22.85;72.61;100145.34;4986247;28;20121;-68
2022/06/18 22:42:46;;;;;;;13.45;5.30;;;;;;;22.81;72.04;100136.06;4953513;28;20161;-73
2022/06/18 22:45:12;;;;;;;9.35;4.72;;;;;;;22.83;71.71;100142.06;4933064;28;20076;-72
2022/06/18 22:47:37;;;;;;;7.75;5.03;;;;;;;22.73;71.65;100144.50;4933735;28;20036;-72
2022/06/18 22:50:05;;;;;;;8.88;5.00;;;;;;;22.70;71.50;100134.19;4971574;28;20025;-70
2022/06/18 22:52:35;;;;;;;10.93;5.22;;;;;;;22.62;72.15;100140.75;4987616;28;20261;-71
2022/06/18 22:55:09;;;;;;;8.32;4.95;;;;;;;22.50;72.69;100138.00;4988937;28;20248;-71
2022/06/18 22:57:35;;;;;;;9.88;4.97;;;;;;;22.54;72.58;100135.69;4979756;28;20050;-71
2022/06/18 23:00:01;;;;;;;10.18;6.10;;;;;;;22.49;72.81;100128.25;4960899;28;20034;-70
2022/06/18 23:02:26;;;;;;;12.48;5.80;;;;;;;22.42;73.11;100124.84;4955541;28;20026;-68
2022/06/18 23:04:53;;;;;;;8.15;5.35;;;;;;;22.36;73.30;100120.38;4964638;28;20287;-71
2022/06/18 23:07:19;;;;;;;10.73;5.47;;;;;;;22.39;73.53;100117.22;4947286;28;20052;-72
2022/06/18 23:09:45;;;;;;;12.35;5.50;;;;;;;22.36;73.51;100115.00;4965970;28;20037;-70
2022/06/18 23:12:11;;;;;;;11.75;5.05;;;;;;;22.26;73.57;100110.13;4949412;28;20075;-72
2022/06/18 23:14:50;;;;;;;10.98;5.07;;;;;;;22.14;73.94;100107.41;4943644;28;20023;-72
2022/06/18 23:17:17;;;;;;;11.55;4.90;;;;;;;22.13;74.17;100111.16;4944752;28;20525;-71
2022/06/18 23:19:46;;;;;;;9.52;5.80;;;;;;;22.12;74.32;100101.41;4962224;28;20032;-69
2022/06/18 23:22:12;;;;;;;11.57;5.40;;;;;;;22.00;74.50;100111.31;4961365;28;20034;-71
2022/06/18 23:24:38;;;;;;;11.23;5.50;;;;;;;21.93;74.98;100109.53;4928669;28;20080;-69
2022/06/18 23:27:04;;;;;;;8.82;5.22;;;;;;;22.01;74.68;100104.88;4944479;28;20404;-70
2022/06/18 23:29:29;;;;;;;9.73;5.20;;;;;;;22.03;74.32;100108.19;4953670;28;20013;-72
2022/06/18 23:31:55;;;;;;;11.77;5.13;;;;;;;21.95;74.20;100101.22;4966193;28;20021;-71
2022/06/18 23:34:26;;;;;;;9.98;5.20;;;;;;;22.02;73.82;100095.75;4964578;28;20018;-69
2022/06/18 23:36:52;;;;;;;9.30;5.18;;;;;;;21.90;74.41;100083.06;4947990;28;20538;-69
2022/06/18 23:39:17;;;;;;;13.05;5.38;;;;;;;21.76;73.96;100073.53;4965842;28;20034;-71
2022/06/18 23:41:43;;;;;;;13.00;4.93;;;;;;;21.66;74.04;100067.84;4966260;28;20010;-73
2022/06/18 23:44:10;;;;;;;12.57;5.13;;;;;;;21.55;73.84;100056.78;4963228;28;20067;-73
2022/06/18 23:46:36;;;;;;;9.98;5.22;;;;;;;21.51;74.12;100046.69;4950152;28;20026;-69
2022/06/18 23:49:01;;;;;;;11.13;5.20;;;;;;;21.42;74.13;100040.78;4967542;28;20119;-72
2022/06/18 23:51:27;;;;;;;8.45;4.75;;;;;;;21.42;74.04;100038.09;4962478;28;20960;-70
2022/06/18 23:53:52;;;;;;;12.73;5.07;;;;;;;21.44;74.13;100046.75;4932254;28;20014;-72
2022/06/18 23:56:17;;;;;;;10.18;5.30;;;;;;;21.35;74.58;100045.41;4948535;28;20031;-72
2022/06/18 23:58:43;;;;;;;10.73;5.03;;;;;;;21.31;74.77;100034.28;4948749;28;20053;-69
